Time;durP1;ratioP1;P1;durP2;ratioP2;P2;SDS_P1;SDS_P2;PMS_P1;PMS_P2;Temp;Humidity;BMP_temperature;BMP_pressure;BME280_temperature;BME280_humidity;BME280_pressure;Samples;Min_cycle;Max_cycle;Signal;HPM_P1;HPM_P2
2022/04/18 00:01:50;;;;;;;15.38;10.20;;;8.00;99.90;;;;;;5053899;28;20045;-82
2022/04/18 00:04:16;;;;;;;13.55;9.45;;;8.10;99.90;;;;;;5064612;28;20044;-82
2022/04/18 00:06:41;;;;;;;15.80;9.93;;;8.00;99.90;;;;;;5053842;28;20120;-83
2022/04/18 00:09:07;;;;;;;15.20;10.00;;;7.90;99.90;;;;;;5056160;28;20041;-82
2022/04/18 00:11:33;;;;;;;19.15;10.32;;;7.90;99.90;;;;;;5057390;28;20048;-82
2022/04/18 00:13:59;;;;;;;13.43;8.77;;;7.80;99.90;;;;;;5056889;28;20044;-82
2022/04/18 00:16:25;;;;;;;17.90;9.50;;;7.60;99.90;;;;;;5051073;28;20041;-80
2022/04/18 00:18:51;;;;;;;16.02;10.60;;;7.60;99.90;;;;;;5047679;28;20076;-82
2022/04/18 00:21:17;;;;;;;15.93;10.13;;;7.60;99.90;;;;;;5050585;28;20052;-82
2022/04/18 00:23:44;;;;;;;15.35;10.77;;;7.60;99.90;;;;;;5055865;28;20049;-82
2022/04/18 00:26:10;;;;;;;19.90;11.65;;;7.80;99.90;;;;;;5048476;28;20041;-82
2022/04/18 00:28:35;;;;;;;12.18;9.68;;;7.70;99.90;;;;;;5050015;28;20094;-83
2022/04/18 00:31:01;;;;;;;14.57;9.82;;;7.70;99.90;;;;;;5061614;28;20722;-82
2022/04/18 00:33:27;;;;;;;21.55;11.52;;;7.60;99.90;;;;;;5064449;28;20045;-79
2022/04/18 00:35:53;;;;;;;15.65;11.77;;;7.50;99.90;;;;;;5063304;28;20042;-83
2022/04/18 00:38:19;;;;;;;15.05;10.90;;;7.60;99.90;;;;;;5054400;28;20573;-83
2022/04/18 00:40:45;;;;;;;16.20;11.20;;;7.50;99.90;;;;;;5060480;28;20033;-82
2022/04/18 00:43:11;;;;;;;17.08;10.48;;;7.60;99.90;;;;;;5070536;28;20116;-83
2022/04/18 00:45:37;;;;;;;15.82;11.50;;;7.60;99.90;;;;;;5055763;28;20049;-82
2022/04/18 00:48:03;;;;;;;15.38;10.70;;;7.50;99.90;;;;;;5063225;28;20033;-82
2022/04/18 00:50:33;;;;;;;13.48;10.10;;;7.50;99.90;;;;;;5057375;28;20045;-82
2022/04/18 00:52:59;;;;;;;14.98;10.85;;;7.50;99.90;;;;;;5038080;28;20033;-82
2022/04/18 00:55:26;;;;;;;16.10;11.68;;;7.30;99.90;;;;;;5067001;28;20110;-81
2022/04/18 00:57:54;;;;;;;15.85;10.93;;;7.40;99.90;;;;;;5054075;28;20045;-83
2022/04/18 01:00:22;;;;;;;14.52;9.68;;;7.40;99.90;;;;;;5059930;28;20037;-83
2022/04/18 01:02:48;;;;;;;14.90;10.95;;;7.40;99.90;;;;;;5052161;28;20037;-81
2022/04/18 01:05:14;;;;;;;17.77;11.18;;;7.40;99.90;;;;;;5066527;28;20108;-83
2022/04/18 01:07:40;;;;;;;15.73;10.35;;;7.40;99.90;;;;;;5070845;28;20048;-82
2022/04/18 01:10:07;;;;;;;18.30;11.07;;;7.40;99.90;;;;;;5071836;28;20486;-81
2022/04/18 01:12:33;;;;;;;16.30;11.05;;;7.40;99.90;;;;;;5053492;28;20045;-81
2022/04/18 01:14:59;;;;;;;16.77;12.65;;;7.30;99.90;;;;;;5054260;28;20388;-82
2022/04/18 01:17:25;;;;;;;13.35;10.27;;;7.30;99.90;;;;;;5054095;28;20107;-82
2022/04/18 01:19:51;;;;;;;21.25;11.55;;;7.20;99.90;;;;;;5053651;28;20045;-83
2022/04/18 01:22:19;;;;;;;18.67;11.05;;;7.20;99.90;;;;;;5068309;28;20109;-80
2022/04/18 01:30:15;;;;;;;15.48;10.95;;;7.20;99.90;;;;;;5070488;28;20048;-83
2022/04/18 01:32:42;;;;;;;18.92;11.55;;;7.20;99.90;;;;;;5055112;28;20041;-82
2022/04/18 01:35:09;;;;;;;19.38;12.77;;;7.30;99.90;;;;;;5058796;28;20041;-83
2022/04/18 01:37:36;;;;;;;22.17;13.93;;;7.20;99.90;;;;;;5066069;28;20085;-81
2022/04/18 01:40:03;;;;;;;20.45;12.35;;;7.20;99.90;;;;;;5054055;28;20549;-83
2022/04/18 01:42:29;;;;;;;17.48;12.00;;;7.10;99.90;;;;;;5053816;28;20049;-82
2022/04/18 01:44:54;;;;;;;21.50;11.13;;;7.20;99.90;;;;;;5053427;28;20043;-83
2022/04/18 01:47:20;;;;;;;19.85;12.77;;;7.10;99.90;;;;;;5065005;28;20538;-82
2022/04/18 01:49:46;;;;;;;17.58;12.07;;;7.10;99.90;;;;;;5070173;28;20045;-81
2022/04/18 01:52:11;;;;;;;17.30;11.60;;;7.00;99.90;;;;;;5063144;28;20036;-82
2022/04/18 01:54:37;;;;;;;19.23;11.20;;;7.00;99.90;;;;;;5051583;28;20048;-81
2022/04/18 01:57:04;;;;;;;21.63;12.82;;;6.90;99.90;;;;;;5048934;28;20068;-83
2022/04/18 01:59:29;;;;;;;22.67;11.88;;;6.90;99.90;;;;;;5061196;28;20048;-81
2022/04/18 02:01:55;;;;;;;16.42;10.82;;;6.80;99.90;;;;;;5053671;28;20044;-82
2022/04/18 02:04:20;;;;;;;24.80;14.05;;;6.80;99.90;;;;;;5054967;28;20040;-82
2022/04/18 02:06:46;;;;;;;16.40;12.32;;;6.70;99.90;;;;;;5066993;28;20040;-82
2022/04/18 02:09:11;;;;;;;18.40;11.73;;;6.70;99.90;;;;;;5066171;28;20059;-83
2022/04/18 02:11:37;;;;;;;18.25;11.68;;;6.60;99.90;;;;;;5054226;28;20471;-83
2022/04/18 02:14:03;;;;;;;17.85;12.90;;;6.60;99.90;;;;;;5058179;28;20049;-80
2022/04/18 02:16:28;;;;;;;18.42;11.90;;;6.50;99.90;;;;;;5058144;28;20093;-83
2022/04/18 02:18:54;;;;;;;18.98;11.65;;;6.50;99.90;;;;;;5058818;28;20036;-80
2022/04/18 02:21:20;;;;;;;19.25;12.13;;;6.40;99.90;;;;;;5058739;28;20049;-82
2022/04/18 02:23:46;;;;;;;20.25;12.48;;;6.30;99.90;;;;;;5052569;28;20041;-83
2022/04/18 02:26:11;;;;;;;18.05;12.23;;;6.30;99.90;;;;;;5063557;28;20037;-82
2022/04/18 02:28:37;;;;;;;19.08;11.50;;;6.30;99.90;;;;;;5061254;28;20045;-81
2022/04/18 02:31:04;;;;;;;18.73;11.65;;;6.30;99.90;;;;;;5057335;28;20086;-84
2022/04/18 02:33:29;;;;;;;16.90;12.32;;;6.20;99.90;;;;;;5056650;28;20043;-83
2022/04/18 02:35:55;;;;;;;14.73;12.20;;;6.20;99.90;;;;;;5051678;28;20045;-83
2022/04/18 02:38:20;;;;;;;19.42;11.30;;;6.20;99.90;;;;;;5040394;28;20064;-83
2022/04/18 02:40:46;;;;;;;22.48;13.85;;;6.10;99.90;;;;;;5062370;28;20098;-83
2022/04/18 02:43:12;;;;;;;14.80;11.10;;;6.10;99.90;;;;;;5035388;28;20072;-83
2022/04/18 02:45:38;;;;;;;17.23;11.35;;;6.00;99.90;;;;;;5069676;28;20431;-83
2022/04/18 02:48:04;;;;;;;23.23;12.75;;;6.00;99.90;;;;;;5063175;28;20431;-84
2022/04/18 02:50:30;;;;;;;19.70;13.25;;;6.00;99.90;;;;;;5065723;28;20057;-83
2022/04/18 02:52:56;;;;;;;18.75;12.45;;;6.00;99.90;;;;;;5050378;28;20033;-82
2022/04/18 02:55:22;;;;;;;15.32;10.93;;;5.90;99.90;;;;;;5052043;28;20093;-83
2022/04/18 02:57:48;;;;;;;19.75;12.13;;;5.90;99.90;;;;;;5051528;28;20048;-83
2022/04/18 03:00:14;;;;;;;19.08;12.05;;;5.90;99.90;;;;;;5050280;28;20033;-83
2022/04/18 03:02:40;;;;;;;16.77;13.23;;;5.80;99.90;;;;;;5049229;28;20120;-84
2022/04/18 03:05:07;;;;;;;18.05;12.85;;;5.80;99.90;;;;;;5057581;28;20394;-83
2022/04/18 03:07:34;;;;;;;20.05;11.13;;;5.80;99.90;;;;;;5053525;28;20605;-83
2022/04/18 03:09:59;;;;;;;16.25;12.02;;;5.80;99.90;;;;;;5051093;28;20040;-83
2022/04/18 03:12:25;;;;;;;18.52;12.93;;;5.70;99.90;;;;;;5050943;28;20056;-83
2022/04/18 03:14:51;;;;;;;18.58;12.38;;;5.70;99.90;;;;;;5065498;28;20059;-84
2022/04/18 03:17:17;;;;;;;18.98;12.07;;;5.70;99.90;;;;;;5052916;28;20049;-83
2022/04/18 03:19:43;;;;;;;19.17;12.27;;;5.70;99.90;;;;;;5052771;28;20398;-84
2022/04/18 03:22:08;;;;;;;34.60;12.10;;;5.70;99.90;;;;;;5060954;28;20037;-79
2022/04/18 03:24:34;;;;;;;20.17;13.10;;;5.70;99.90;;;;;;5033896;28;20443;-84
2022/04/18 03:27:04;;;;;;;16.50;11.15;;;5.70;99.90;;;;;;5049749;28;20033;-83
2022/04/18 03:29:31;;;;;;;17.52;11.32;;;5.70;99.90;;;;;;5050961;28;20049;-83
2022/04/18 03:31:57;;;;;;;17.88;12.13;;;5.70;99.90;;;;;;5054136;28;20044;-83
2022/04/18 03:34:23;;;;;;;18.00;11.50;;;5.80;99.90;;;;;;5069119;28;20040;-83
2022/04/18 03:39:51;;;;;;;26.83;12.45;;;5.70;99.90;;;;;;5053933;28;20048;-82
2022/04/18 03:42:19;;;;;;;18.65;12.65;;;5.70;99.90;;;;;;5056065;28;20507;-81
2022/04/18 03:44:46;;;;;;;17.42;11.07;;;5.70;99.90;;;;;;5048752;28;20052;-83
2022/04/18 03:47:13;;;;;;;18.73;12.13;;;5.70;99.90;;;;;;5048658;28;20041;-83
2022/04/18 03:49:39;;;;;;;19.17;12.55;;;5.70;99.90;;;;;;5059993;28;20221;-82
2022/04/18 03:52:06;;;;;;;20.33;13.38;;;5.70;99.90;;;;;;5061915;28;20047;-83
2022/04/18 03:54:34;;;;;;;19.27;11.75;;;5.70;99.90;;;;;;5051234;28;20119;-84
2022/04/18 03:57:03;;;;;;;23.10;14.38;;;5.70;99.90;;;;;;5053147;28;20068;-82
2022/04/18 03:59:29;;;;;;;17.83;12.85;;;5.60;99.90;;;;;;5061649;28;20040;-84
2022/04/18 04:01:55;;;;;;;19.52;13.00;;;5.50;99.90;;;;;;5063864;28;20036;-81
2022/04/18 04:04:20;;;;;;;15.93;11.35;;;5.60;99.90;;;;;;5060728;28;20048;-83
2022/04/18 04:06:46;;;;;;;18.67;11.90;;;5.60;99.90;;;;;;5049209;28;20037;-81
2022/04/18 04:09:11;;;;;;;17.83;12.07;;;5.60;99.90;;;;;;5060452;28;20044;-82
2022/04/18 04:11:37;;;;;;;20.40;12.75;;;5.60;99.90;;;;;;5067850;28;20588;-80
2022/04/18 04:14:03;;;;;;;16.25;10.98;;;5.60;99.90;;;;;;5050949;28;20057;-82
2022/04/18 04:16:29;;;;;;;16.75;12.32;;;5.60;99.90;;;;;;5048099;28;20395;-82
2022/04/18 04:18:54;;;;;;;20.67;12.55;;;5.60;99.90;;;;;;5050525;28;20036;-83
2022/04/18 04:21:20;;;;;;;18.58;11.93;;;5.60;99.90;;;;;;5056654;28;20120;-83
2022/04/18 04:23:46;;;;;;;17.80;12.43;;;5.60;99.90;;;;;;5048845;28;20438;-83
2022/04/18 04:26:12;;;;;;;19.08;11.52;;;5.60;99.90;;;;;;5058301;28;20116;-83
2022/04/18 04:28:37;;;;;;;17.33;12.70;;;5.60;99.90;;;;;;5054939;28;20488;-83
2022/04/18 04:31:03;;;;;;;14.93;12.13;;;5.60;99.90;;;;;;5053353;28;20047;-81
2022/04/18 04:33:30;;;;;;;16.95;12.10;;;5.60;99.90;;;;;;5053213;28;20041;-79
2022/04/18 04:36:00;;;;;;;18.88;12.55;;;5.50;99.90;;;;;;5064851;28;20036;-82
2022/04/18 04:38:26;;;;;;;17.50;13.07;;;5.50;99.90;;;;;;5057768;28;20041;-82
2022/04/18 04:40:55;;;;;;;20.35;12.23;;;5.50;99.90;;;;;;5049931;28;20064;-83
2022/04/18 04:43:21;;;;;;;21.90;14.30;;;5.50;99.90;;;;;;5054065;28;20071;-81
2022/04/18 04:45:46;;;;;;;14.82;11.73;;;5.40;99.90;;;;;;5056310;28;20331;-82
2022/04/18 04:48:12;;;;;;;15.73;10.32;;;5.50;99.90;;;;;;5031303;28;20036;-82
2022/04/18 04:50:39;;;;;;;21.23;12.55;;;5.70;99.90;;;;;;5050663;28;20049;-84
2022/04/18 04:53:05;;;;;;;22.38;14.30;;;6.00;99.90;;;;;;5056983;28;20529;-83
2022/04/18 04:55:31;;;;;;;23.08;13.25;;;6.10;99.90;;;;;;5048527;28;20041;-83
2022/04/18 04:57:57;;;;;;;18.25;11.85;;;6.00;99.90;;;;;;5049356;28;20509;-84
2022/04/18 05:00:24;;;;;;;18.80;14.02;;;5.80;99.90;;;;;;5066854;28;20051;-84
2022/04/18 05:02:49;;;;;;;40.60;13.57;;;5.80;99.90;;;;;;5061806;28;20170;-84
2022/04/18 05:05:15;;;;;;;15.90;11.90;;;5.80;99.90;;;;;;5034069;28;20132;-83
2022/04/18 05:07:40;;;;;;;19.80;11.93;;;6.00;99.90;;;;;;5066551;28;20052;-81
2022/04/18 05:10:06;;;;;;;22.15;13.52;;;6.00;99.90;;;;;;5054105;28;20055;-86
2022/04/18 05:12:32;;;;;;;15.02;11.60;;;6.00;99.90;;;;;;5053646;28;20517;-80
2022/04/18 05:15:05;;;;;;;15.63;12.75;;;6.20;99.90;;;;;;5048167;28;20586;-83
2022/04/18 05:17:31;;;;;;;17.85;13.00;;;6.50;99.90;;;;;;5049709;28;20124;-80
2022/04/18 05:19:57;;;;;;;15.57;11.02;;;6.40;99.90;;;;;;5062281;28;20125;-81
2022/04/18 05:22:23;;;;;;;18.50;12.65;;;6.70;99.90;;;;;;5051765;28;20041;-81
2022/04/18 05:24:49;;;;;;;17.20;12.10;;;6.80;99.90;;;;;;5057795;28;20048;-78
2022/04/18 05:27:15;;;;;;;16.77;12.25;;;6.60;99.90;;;;;;5064904;28;20053;-76
2022/04/18 05:29:44;;;;;;;17.65;11.20;;;6.70;99.90;;;;;;5066556;28;20181;-81
2022/04/18 05:32:10;;;;;;;19.92;12.20;;;6.90;99.90;;;;;;5055425;28;20090;-82
2022/04/18 05:34:36;;;;;;;16.77;11.82;;;7.20;99.90;;;;;;5035479;28;20583;-82
2022/04/18 05:37:02;;;;;;;15.77;10.30;;;7.50;99.90;;;;;;5041157;28;20128;-81
2022/04/18 05:39:28;;;;;;;15.98;11.98;;;7.50;99.90;;;;;;5054706;28;20049;-80
2022/04/18 05:41:56;;;;;;;23.52;13.10;;;7.90;99.90;;;;;;5070254;28;20129;-79
2022/04/18 05:44:24;;;;;;;17.98;12.85;;;8.20;99.90;;;;;;5070948;28;20037;-81
2022/04/18 05:46:50;;;;;;;16.00;10.30;;;8.30;99.90;;;;;;5058451;28;20040;-83
2022/04/18 05:49:16;;;;;;;14.88;11.82;;;7.50;99.90;;;;;;5067350;28;20051;-82
2022/04/18 05:51:41;;;;;;;15.50;11.73;;;7.40;99.90;;;;;;5054296;28;20045;-80
2022/04/18 05:54:07;;;;;;;15.02;11.50;;;7.50;99.90;;;;;;5034670;28;20080;-81
2022/04/18 05:56:33;;;;;;;19.38;13.10;;;7.40;99.90;;;;;;5051732;28;20091;-82
2022/04/18 05:58:59;;;;;;;17.05;11.93;;;7.20;99.90;;;;;;5050703;28;20077;-81
2022/04/18 06:01:25;;;;;;;15.57;12.00;;;7.30;99.90;;;;;;5060576;28;20111;-81
2022/04/18 06:03:50;;;;;;;19.08;11.63;;;7.30;99.90;;;;;;5063899;28;20144;-82
2022/04/18 06:06:16;;;;;;;18.42;11.35;;;7.30;99.90;;;;;;5060486;28;20391;-81
2022/04/18 06:08:42;;;;;;;16.35;11.68;;;7.40;99.90;;;;;;5064407;28;20037;-81
2022/04/18 06:11:07;;;;;;;22.30;11.75;;;7.60;99.90;;;;;;5060505;28;20036;-82
2022/04/18 06:13:33;;;;;;;20.60;12.48;;;7.80;99.90;;;;;;5067535;28;20041;-81
2022/04/18 06:15:59;;;;;;;18.67;12.63;;;8.00;99.90;;;;;;5049284;28;20070;-84
2022/04/18 06:18:25;;;;;;;21.65;13.07;;;8.50;99.90;;;;;;5064274;28;20048;-82
2022/04/18 06:20:51;;;;;;;16.15;12.52;;;8.50;99.90;;;;;;5065850;28;20044;-80
2022/04/18 06:23:17;;;;;;;21.25;12.40;;;8.50;99.90;;;;;;5071738;28;20040;-80
2022/04/18 06:25:43;;;;;;;19.33;11.50;;;8.50;99.90;;;;;;5055927;28;20036;-81
2022/04/18 06:28:10;;;;;;;19.42;12.90;;;8.70;99.90;;;;;;5056479;28;20048;-79
2022/04/18 06:30:36;;;;;;;17.08;12.80;;;8.60;99.90;;;;;;5070009;28;20415;-80
2022/04/18 06:33:02;;;;;;;18.38;11.50;;;8.50;99.90;;;;;;5050664;28;20109;-82
2022/04/18 06:35:27;;;;;;;17.60;10.95;;;8.40;99.90;;;;;;5050548;28;20083;-81
2022/04/18 06:37:53;;;;;;;28.00;13.35;;;8.60;99.90;;;;;;5050404;28;20405;-81
2022/04/18 06:40:19;;;;;;;15.38;12.23;;;8.70;99.90;;;;;;5053292;28;20040;-81
2022/04/18 06:42:45;;;;;;;15.88;11.20;;;8.80;99.90;;;;;;5051615;28;20548;-82
2022/04/18 06:45:10;;;;;;;19.02;13.05;;;8.80;99.90;;;;;;5053789;28;20045;-80
2022/04/18 06:47:36;;;;;;;25.95;13.48;;;9.00;99.90;;;;;;5053953;28;20043;-78
2022/04/18 06:50:06;;;;;;;14.40;10.80;;;9.20;99.90;;;;;;5067078;28;20087;-80
2022/04/18 06:52:39;;;;;;;19.13;12.60;;;9.30;99.90;;;;;;5040223;28;20079;-80
2022/04/18 06:55:06;;;;;;;14.88;11.30;;;9.80;99.90;;;;;;5050405;28;20037;-85
2022/04/18 06:57:32;;;;;;;14.10;10.00;;;10.00;99.90;;;;;;5052081;28;20045;-82
2022/04/18 06:59:57;;;;;;;17.60;11.73;;;10.30;99.90;;;;;;5051156;28;20577;-82
2022/04/18 07:02:23;;;;;;;17.48;11.15;;;10.80;99.90;;;;;;5055933;28;20048;-83
2022/04/18 07:04:49;;;;;;;14.57;10.77;;;11.40;99.90;;;;;;5062043;28;20483;-82
2022/04/18 07:07:15;;;;;;;18.75;10.23;;;12.60;99.90;;;;;;5058879;28;20033;-85
2022/04/18 07:09:40;;;;;;;18.52;10.65;;;13.20;99.90;;;;;;5054617;28;20037;-81
2022/04/18 07:12:06;;;;;;;14.07;9.02;;;12.90;99.90;;;;;;5056979;28;20049;-86
2022/04/18 07:14:35;;;;;;;17.30;10.52;;;12.90;99.90;;;;;;5062910;28;20052;-86
2022/04/18 07:17:01;;;;;;;14.65;9.52;;;11.70;99.90;;;;;;5060166;28;20036;-86
2022/04/18 07:19:28;;;;;;;16.35;10.95;;;11.50;99.90;;;;;;5054618;28;20055;-86
2022/04/18 07:21:55;;;;;;;12.20;9.07;;;11.10;99.90;;;;;;5048000;28;20040;-81
2022/04/18 07:24:20;;;;;;;14.70;10.27;;;11.00;99.90;;;;;;5059728;28;20493;-79
2022/04/18 07:26:46;;;;;;;25.25;10.07;;;11.00;99.90;;;;;;5060124;28;20071;-85
2022/04/18 07:29:11;;;;;;;14.05;9.52;;;11.20;99.90;;;;;;5071230;28;20052;-79
2022/04/18 07:31:37;;;;;;;14.73;9.55;;;11.30;99.90;;;;;;5060798;28;20073;-87
2022/04/18 07:34:02;;;;;;;15.68;8.77;;;11.50;99.90;;;;;;5059344;28;20044;-85
2022/04/18 07:36:28;;;;;;;12.43;8.77;;;11.40;99.90;;;;;;5058046;28;20679;-87
2022/04/18 07:38:53;;;;;;;10.60;8.63;;;11.70;99.90;;;;;;5060322;28;20379;-87
2022/04/18 07:41:21;;;;;;;13.73;8.95;;;11.70;99.90;;;;;;5068719;28;20042;-83
2022/04/18 07:43:47;;;;;;;15.45;10.77;;;11.70;99.90;;;;;;5072338;28;20041;-83
2022/04/18 07:46:17;;;;;;;13.70;9.10;;;11.70;99.90;;;;;;5063925;28;20437;-86
2022/04/18 07:48:44;;;;;;;11.83;8.47;;;11.80;99.90;;;;;;5058245;28;20080;-86
2022/04/18 07:53:55;;;;;;;12.70;9.25;;;12.10;99.90;;;;;;5067624;28;20514;-87
2022/04/18 07:56:21;;;;;;;9.68;7.53;;;12.40;99.90;;;;;;5057244;28;20078;-83
2022/04/18 07:58:47;;;;;;;11.65;7.97;;;12.70;99.90;;;;;;5061880;28;20037;-83
2022/04/18 08:01:12;;;;;;;12.63;8.90;;;12.70;99.90;;;;;;5054170;28;20086;-80
2022/04/18 08:03:38;;;;;;;9.77;7.45;;;12.70;99.90;;;;;;5064309;28;20041;-81
2022/04/18 08:06:04;;;;;;;10.88;7.95;;;12.70;99.90;;;;;;5058950;28;20771;-80
2022/04/18 08:08:31;;;;;;;11.10;7.13;;;12.90;99.90;;;;;;5057398;28;20053;-81
2022/04/18 08:11:00;;;;;;;15.68;7.35;;;12.90;99.90;;;;;;5055903;28;20041;-82
2022/04/18 08:13:27;;;;;;;9.45;7.75;;;13.20;99.90;;;;;;5049923;28;20053;-83
2022/04/18 08:15:53;;;;;;;10.88;7.30;;;13.30;99.90;;;;;;5057682;28;20040;-82
2022/04/18 08:18:18;;;;;;;10.70;6.75;;;13.30;99.90;;;;;;5055033;28;20037;-81
2022/04/18 08:20:44;;;;;;;8.05;5.90;;;13.40;99.90;;;;;;5065983;28;20135;-81
2022/04/18 08:23:10;;;;;;;9.65;6.93;;;13.40;99.70;;;;;;5067921;28;20040;-82
2022/04/18 08:25:35;;;;;;;10.35;6.72;;;13.40;99.40;;;;;;5066834;28;20040;-83
2022/04/18 08:28:01;;;;;;;11.00;6.72;;;13.40;99.50;;;;;;5049364;28;20052;-80
2022/04/18 08:30:27;;;;;;;12.02;6.75;;;13.60;99.80;;;;;;5058307;28;20135;-80
2022/04/18 08:32:53;;;;;;;32.28;7.78;;;13.70;99.30;;;;;;5056243;28;20498;-81
2022/04/18 08:35:19;;;;;;;9.60;6.78;;;13.70;99.30;;;;;;5054896;28;20044;-81
2022/04/18 08:37:44;;;;;;;11.73;7.13;;;13.70;99.20;;;;;;5050998;28;20033;-82
2022/04/18 08:40:10;;;;;;;9.23;6.95;;;13.90;99.30;;;;;;5067591;28;20506;-82
2022/04/18 08:42:41;;;;;;;10.57;7.05;;;14.10;99.90;;;;;;5066615;28;20047;-80
2022/04/18 08:45:09;;;;;;;13.32;7.82;;;14.00;99.20;;;;;;5067955;28;20174;-80
2022/04/18 08:53:09;;;;;;;9.63;7.07;;;14.30;98.80;;;;;;5054791;28;20045;-78
2022/04/18 08:55:36;;;;;;;12.50;7.30;;;14.40;99.00;;;;;;5055550;28;20049;-87
2022/04/18 08:58:02;;;;;;;10.55;7.32;;;14.50;98.80;;;;;;5054706;28;20041;-83
2022/04/18 09:00:27;;;;;;;9.48;7.32;;;14.60;99.00;;;;;;5059897;28;20410;-82
2022/04/18 09:02:54;;;;;;;10.32;7.65;;;14.80;99.10;;;;;;5044425;28;20074;-83
2022/04/18 09:05:21;;;;;;;7.97;5.45;;;14.60;98.50;;;;;;5058123;28;20479;-80
2022/04/18 09:08:07;;;;;;;7.78;5.53;;;14.90;98.10;;;;;;5058565;28;20135;-85
2022/04/18 09:10:34;;;;;;;12.68;6.78;;;15.00;97.90;;;;;;5077276;28;20059;-82
2022/04/18 09:13:12;;;;;;;7.60;5.30;;;14.80;97.30;;;;;;5077239;28;20059;-84
2022/04/18 09:15:42;;;;;;;11.68;6.57;;;15.00;98.00;;;;;;5066659;28;20513;-85
2022/04/18 09:18:09;;;;;;;8.10;6.50;;;15.20;98.80;;;;;;5056496;28;20044;-79
2022/04/18 09:20:41;;;;;;;7.40;5.78;;;15.40;98.70;;;;;;5054541;28;20048;-83
2022/04/18 09:23:28;;;;;;;24.95;7.82;;;15.40;98.20;;;;;;5073227;28;20131;-81
2022/04/18 09:25:53;;;;;;;10.80;5.80;;;15.50;97.00;;;;;;5054677;28;20132;-80
2022/04/18 09:28:25;;;;;;;7.03;5.70;;;15.70;97.80;;;;;;5052149;28;20415;-83
2022/04/18 09:31:18;;;;;;;6.55;4.70;;;15.60;96.40;;;;;;5052088;28;20523;-85
2022/04/18 09:33:45;;;;;;;9.27;6.55;;;15.60;96.50;;;;;;5047872;28;20136;-83
2022/04/18 09:36:28;;;;;;;10.55;5.68;;;15.70;96.40;;;;;;5052184;28;20045;-86
2022/04/18 09:38:55;;;;;;;8.15;5.13;;;15.90;97.70;;;;;;5060895;28;20055;-82
2022/04/18 09:41:32;;;;;;;9.50;6.15;;;16.00;97.00;;;;;;5072527;28;20460;-85
2022/04/18 09:43:58;;;;;;;11.00;5.25;;;15.90;96.60;;;;;;5072168;28;20135;-83
2022/04/18 09:46:24;;;;;;;8.02;5.88;;;15.80;95.60;;;;;;5059047;28;20037;-82
2022/04/18 09:48:51;;;;;;;10.93;6.45;;;15.80;95.90;;;;;;5063431;28;20456;-83
2022/04/18 09:51:24;;;;;;;7.53;5.30;;;16.10;96.20;;;;;;5063587;28;20095;-85
2022/04/18 09:53:55;;;;;;;11.05;5.68;;;15.70;93.90;;;;;;5051189;28;20139;-83
2022/04/18 09:56:22;;;;;;;7.15;5.07;;;16.10;96.00;;;;;;5056070;28;20049;-84
2022/04/18 09:58:48;;;;;;;6.75;5.10;;;16.20;96.10;;;;;;5065579;28;20057;-83
2022/04/18 10:01:14;;;;;;;6.97;6.28;;;16.40;94.80;;;;;;5052473;28;20081;-82
2022/04/18 10:03:41;;;;;;;7.60;6.35;;;16.50;94.60;;;;;;5050806;28;20087;-81
2022/04/18 10:06:07;;;;;;;7.40;5.55;;;16.40;94.10;;;;;;5061884;28;20072;-81
2022/04/18 10:08:34;;;;;;;8.30;5.68;;;16.40;94.60;;;;;;5059840;28;20045;-86
2022/04/18 10:11:02;;;;;;;9.93;6.25;;;16.30;94.10;;;;;;5052243;28;20522;-79
2022/04/18 10:13:29;;;;;;;8.65;5.93;;;16.20;94.10;;;;;;5051141;28;20056;-83
2022/04/18 10:15:56;;;;;;;8.88;5.35;;;16.20;93.80;;;;;;5050905;28;20037;-82
2022/04/18 10:18:23;;;;;;;5.05;4.53;;;16.40;94.60;;;;;;5054580;28;20360;-83
2022/04/18 10:21:07;;;;;;;7.25;5.18;;;16.60;93.90;;;;;;5070466;28;20171;-83
2022/04/18 10:24:00;;;;;;;8.82;4.85;;;16.70;93.50;;;;;;5069100;28;20048;-83
2022/04/18 10:26:45;;;;;;;6.13;5.53;;;16.50;93.30;;;;;;5054160;28;20048;-83
2022/04/18 10:29:28;;;;;;;5.75;4.20;;;16.60;93.30;;;;;;5053380;28;20543;-84
2022/04/18 10:31:55;;;;;;;7.80;4.28;;;16.80;93.50;;;;;;5049788;28;20041;-83
2022/04/18 10:34:23;;;;;;;5.68;4.00;;;16.90;93.10;;;;;;5051869;28;20406;-83
2022/04/18 10:36:52;;;;;;;10.60;5.60;;;16.80;92.70;;;;;;5034264;28;20045;-85
2022/04/18 10:39:19;;;;;;;5.90;4.43;;;17.00;92.50;;;;;;5056209;28;20490;-87
2022/04/18 10:41:47;;;;;;;6.45;4.68;;;17.10;93.40;;;;;;5060590;28;20033;-86
2022/04/18 10:44:19;;;;;;;6.32;4.10;;;17.00;92.50;;;;;;5070608;28;20033;-86
2022/04/18 10:46:49;;;;;;;5.50;4.10;;;17.00;92.00;;;;;;5056150;28;20033;-86
2022/04/18 10:49:20;;;;;;;7.13;3.90;;;17.00;91.40;;;;;;5055749;28;20078;-85
2022/04/18 10:51:47;;;;;;;7.88;4.18;;;17.10;90.40;;;;;;5072252;28;20039;-86
2022/04/18 10:54:30;;;;;;;5.05;3.60;;;17.00;91.10;;;;;;5076466;28;20052;-85
2022/04/18 10:56:57;;;;;;;5.82;4.35;;;17.00;89.10;;;;;;5064010;28;20040;-83
2022/04/18 10:59:28;;;;;;;8.23;4.30;;;17.20;91.10;;;;;;5070142;28;20351;-89
2022/04/18 11:01:55;;;;;;;6.10;3.63;;;17.20;91.00;;;;;;5053906;28;20044;-86
2022/04/18 11:04:31;;;;;;;4.75;3.22;;;17.40;90.10;;;;;;5060458;28;20094;-87
2022/04/18 11:07:05;;;;;;;4.50;3.78;;;17.60;91.00;;;;;;5059925;28;20506;-83
2022/04/18 11:09:52;;;;;;;4.88;3.47;;;17.60;87.40;;;;;;5050399;28;20483;-85
2022/04/18 11:12:20;;;;;;;3.40;2.65;;;17.80;88.90;;;;;;5049409;28;20048;-84
2022/04/18 11:15:01;;;;;;;4.47;2.97;;;17.80;88.10;;;;;;5059281;28;20048;-84
2022/04/18 11:17:29;;;;;;;7.13;3.95;;;17.90;86.70;;;;;;5077819;28;20072;-83
2022/04/18 11:19:55;;;;;;;3.50;2.40;;;17.90;85.10;;;;;;5091723;28;20387;-83
2022/04/18 11:22:22;;;;;;;4.13;2.97;;;17.90;84.90;;;;;;5069825;28;20043;-85
2022/04/18 11:24:51;;;;;;;3.92;2.45;;;17.80;83.80;;;;;;5051851;28;20083;-86
2022/04/18 11:27:32;;;;;;;5.88;3.60;;;17.90;86.20;;;;;;5049893;28;20053;-85
2022/04/18 11:30:01;;;;;;;5.43;3.15;;;17.80;84.40;;;;;;5064003;28;20619;-82
2022/04/18 11:32:32;;;;;;;5.95;3.55;;;17.80;81.70;;;;;;5070002;28;20040;-81
2022/04/18 11:35:00;;;;;;;6.35;4.60;;;17.90;84.60;;;;;;5051604;28;20083;-79
2022/04/18 11:37:26;;;;;;;6.35;2.90;;;18.00;84.00;;;;;;5067455;28;20047;-79
2022/04/18 11:39:54;;;;;;;6.32;3.63;;;18.10;85.00;;;;;;5069589;28;20052;-81
2022/04/18 11:42:25;;;;;;;4.70;3.20;;;18.00;84.60;;;;;;5061895;28;20040;-80
2022/04/18 11:44:55;;;;;;;7.00;3.83;;;17.90;84.90;;;;;;5072117;28;20508;-80
2022/04/18 11:47:41;;;;;;;8.93;4.45;;;18.00;84.20;;;;;;5050964;28;20064;-79
2022/04/18 11:50:08;;;;;;;7.93;4.25;;;18.10;84.70;;;;;;5051582;28;20498;-79
2022/04/18 11:52:36;;;;;;;7.70;4.68;;;17.90;86.60;;;;;;5051137;28;20048;-81
2022/04/18 11:55:06;;;;;;;5.55;3.58;;;18.10;89.00;;;;;;5060267;28;20047;-82
2022/04/18 11:57:34;;;;;;;5.20;4.00;;;18.30;84.20;;;;;;5051872;28;20037;-83
2022/04/18 12:00:03;;;;;;;5.53;3.80;;;18.40;84.10;;;;;;5049011;28;20048;-82
2022/04/18 12:08:10;;;;;;;7.07;3.47;;;18.70;81.80;;;;;;5070982;28;20049;-82
2022/04/18 12:10:40;;;;;;;6.80;3.38;;;18.70;83.90;;;;;;5071171;28;20107;-85
2022/04/18 12:13:08;;;;;;;5.40;3.08;;;18.70;84.20;;;;;;5061682;28;20057;-86
2022/04/18 12:15:35;;;;;;;3.75;3.00;;;18.70;82.40;;;;;;5031929;28;20063;-81
2022/04/18 12:18:12;;;;;;;5.22;3.17;;;18.80;84.00;;;;;;5069091;28;20049;-85
2022/04/18 12:20:46;;;;;;;5.25;2.70;;;18.90;78.50;;;;;;5060612;28;20037;-81
2022/04/18 12:23:24;;;;;;;2.97;2.00;;;19.00;79.90;;;;;;5062056;28;20051;-82
2022/04/18 12:25:55;;;;;;;2.33;1.90;;;18.90;78.30;;;;;;5070097;28;20056;-83
2022/04/18 12:28:23;;;;;;;2.50;1.88;;;19.00;79.40;;;;;;5070093;28;20187;-83
2022/04/18 12:30:49;;;;;;;3.58;2.60;;;19.00;75.90;;;;;;5067296;28;20559;-82
2022/04/18 12:33:26;;;;;;;3.97;2.70;;;19.00;77.10;;;;;;5052074;28;20095;-85
2022/04/18 12:35:53;;;;;;;3.47;2.70;;;18.80;74.60;;;;;;5051876;28;20060;-81
2022/04/18 12:38:28;;;;;;;3.92;2.72;;;18.90;77.50;;;;;;5051193;28;20045;-75
2022/04/18 12:41:00;;;;;;;3.10;2.60;;;19.00;78.80;;;;;;5053502;28;20041;-73
2022/04/18 12:43:35;;;;;;;6.05;2.75;;;19.10;78.40;;;;;;5034094;28;20048;-84
2022/04/18 12:46:07;;;;;;;6.90;3.03;;;18.90;76.60;;;;;;5057183;28;20495;-84
2022/04/18 12:48:34;;;;;;;4.88;2.72;;;19.00;77.70;;;;;;5058335;28;20055;-85
2022/04/18 12:51:04;;;;;;;4.00;2.90;;;19.10;77.80;;;;;;5051501;28;20088;-84
2022/04/18 12:53:52;;;;;;;3.35;2.25;;;18.60;72.80;;;;;;5053987;28;20047;-86
2022/04/18 12:56:23;;;;;;;6.35;3.65;;;18.50;74.80;;;;;;5060744;28;20079;-83
2022/04/18 12:59:03;;;;;;;3.42;2.67;;;18.60;75.90;;;;;;5051658;28;20091;-82
2022/04/18 13:01:36;;;;;;;4.00;2.85;;;18.90;75.00;;;;;;5049302;28;20068;-81
2022/04/18 13:04:23;;;;;;;4.72;2.72;;;18.60;73.40;;;;;;5052563;28;20040;-81
2022/04/18 13:06:56;;;;;;;5.85;2.92;;;18.60;74.00;;;;;;5049438;28;20403;-81